createdAt,value
2022-12-25T00:01:11.758Z,2.01
2022-12-25T00:03:50.048Z,2.11
2022-12-25T00:06:17.823Z,2.09
2022-12-25T00:08:45.465Z,2.10
2022-12-25T00:11:15.054Z,2.05
2022-12-25T00:13:43.620Z,2.12
2022-12-25T00:16:18.288Z,2.15
2022-12-25T00:18:46.590Z,2.14
2022-12-25T00:21:14.831Z,2.12
2022-12-25T00:23:43.094Z,2.16
2022-12-25T00:26:17.126Z,2.20
2022-12-25T00:28:44.912Z,2.17
2022-12-25T00:31:17.465Z,2.19
2022-12-25T00:33:46.749Z,2.21
2022-12-25T00:36:15.952Z,2.19
2022-12-25T00:38:44.009Z,2.23
2022-12-25T00:41:40.136Z,2.30
2022-12-25T00:44:09.648Z,2.30
2022-12-25T00:46:37.012Z,2.30
2022-12-25T00:49:04.602Z,2.30
2022-12-25T00:51:32.179Z,2.32
2022-12-25T00:53:59.815Z,2.35
2022-12-25T00:56:26.975Z,2.37
2022-12-25T00:58:55.229Z,2.41
2022-12-25T01:01:22.670Z,2.43
2022-12-25T01:03:50.059Z,2.43
2022-12-25T01:06:17.355Z,2.47
2022-12-25T01:09:04.726Z,2.53
2022-12-25T01:11:32.283Z,2.52
2022-12-25T01:13:59.876Z,2.47
2022-12-25T01:16:27.671Z,2.51
2022-12-25T01:18:55.407Z,2.51
2022-12-25T01:21:23.305Z,2.57
2022-12-25T01:23:52.567Z,2.60
2022-12-25T01:26:21.519Z,2.60
2022-12-25T01:28:50.925Z,2.46
2022-12-25T01:31:20.224Z,2.51
2022-12-25T01:33:47.925Z,2.48
2022-12-25T01:36:21.033Z,2.52
2022-12-25T01:38:49.376Z,2.59
2022-12-25T01:41:18.414Z,2.52
2022-12-25T01:44:07.549Z,2.48
2022-12-25T01:46:36.025Z,2.46
2022-12-25T01:49:15.580Z,2.44
2022-12-25T01:51:45.430Z,2.52
2022-12-25T01:54:16.427Z,2.55
2022-12-25T01:56:44.386Z,2.59
2022-12-25T01:59:12.293Z,2.61
2022-12-25T02:01:39.728Z,2.60
2022-12-25T02:04:17.083Z,2.64
2022-12-25T02:06:44.278Z,2.60
2022-12-25T02:09:11.683Z,2.57
2022-12-25T02:11:57.660Z,2.59
2022-12-25T02:14:30.815Z,2.61
2022-12-25T02:17:24.867Z,2.62
2022-12-25T02:20:13.824Z,2.57
2022-12-25T02:23:22.554Z,2.55
2022-12-25T02:25:58.679Z,2.58
2022-12-25T02:28:34.716Z,2.62
2022-12-25T02:31:09.155Z,2.68
2022-12-25T02:34:03.461Z,2.71
2022-12-25T02:37:08.214Z,2.72
2022-12-25T02:39:59.966Z,2.74
2022-12-25T02:42:57.682Z,2.73
2022-12-25T02:46:16.874Z,2.74
2022-12-25T02:49:07.209Z,2.80
2022-12-25T02:51:55.908Z,2.81
2022-12-25T02:54:50.473Z,2.80
2022-12-25T02:57:37.622Z,2.72
2022-12-25T03:00:26.161Z,2.73
2022-12-25T03:03:12.056Z,2.72
2022-12-25T03:05:59.586Z,2.81
2022-12-25T03:08:36.327Z,2.80
2022-12-25T03:11:25.468Z,2.87
2022-12-25T03:13:55.703Z,2.90
2022-12-25T03:16:41.751Z,2.87
2022-12-25T03:19:41.176Z,2.90
2022-12-25T03:22:30.961Z,2.90
2022-12-25T03:25:17.018Z,2.96
2022-12-25T03:27:45.414Z,2.96
2022-12-25T03:30:31.642Z,2.95
2022-12-25T03:33:36.654Z,2.87
2022-12-25T03:36:36.839Z,2.94
2022-12-25T03:39:33.443Z,2.96
2022-12-25T03:42:20.716Z,2.87
2022-12-25T03:45:22.492Z,2.97
2022-12-25T03:48:11.012Z,2.97
2022-12-25T03:51:06.810Z,3.00
2022-12-25T03:53:58.330Z,3.05
2022-12-25T03:56:45.120Z,3.01
2022-12-25T03:59:31.355Z,3.04
2022-12-25T04:02:17.172Z,3.08
2022-12-25T04:05:03.006Z,3.09
2022-12-25T04:07:48.927Z,3.13
2022-12-25T04:10:34.486Z,3.05
2022-12-25T04:13:20.392Z,3.02
2022-12-25T04:16:06.141Z,2.94
2022-12-25T04:18:52.020Z,2.96
2022-12-25T04:21:37.701Z,2.98
2022-12-25T04:24:24.065Z,3.01
2022-12-25T04:27:10.040Z,3.03
2022-12-25T04:29:55.965Z,3.04
2022-12-25T04:32:41.706Z,3.05
2022-12-25T04:35:27.669Z,3.03
2022-12-25T04:37:54.932Z,3.07
2022-12-25T04:40:22.298Z,3.16
2022-12-25T04:42:52.667Z,3.12
2022-12-25T04:45:20.478Z,3.10
2022-12-25T04:47:47.642Z,3.07
2022-12-25T04:50:14.923Z,3.09
2022-12-25T04:52:42.084Z,3.05
2022-12-25T04:55:10.175Z,3.14
2022-12-25T04:57:37.815Z,3.16
2022-12-25T05:00:06.369Z,3.12
2022-12-25T05:02:34.206Z,3.17
2022-12-25T05:05:02.200Z,3.20
2022-12-25T05:07:29.427Z,3.15
2022-12-25T05:09:56.790Z,3.14
2022-12-25T05:12:23.927Z,3.10
2022-12-25T05:14:51.351Z,3.12
2022-12-25T05:17:18.461Z,3.16
2022-12-25T05:19:45.912Z,3.15
2022-12-25T05:22:13.171Z,3.15
2022-12-25T05:24:40.615Z,3.23
2022-12-25T05:27:07.817Z,3.26
2022-12-25T05:29:35.106Z,3.28
2022-12-25T05:34:48.000Z,3.21
2022-12-25T05:37:15.348Z,3.16
2022-12-25T05:39:42.556Z,3.20
2022-12-25T05:42:09.997Z,3.20
2022-12-25T05:44:37.280Z,3.28
2022-12-25T05:47:04.730Z,3.26
2022-12-25T05:49:31.892Z,3.27
2022-12-25T05:51:59.335Z,3.30
2022-12-25T05:54:27.722Z,3.32
2022-12-25T05:56:55.132Z,3.31
2022-12-25T05:59:22.212Z,3.35
2022-12-25T06:01:49.611Z,3.40
2022-12-25T06:04:16.957Z,3.40
2022-12-25T06:06:44.302Z,3.42
2022-12-25T06:09:12.275Z,3.39
2022-12-25T06:11:40.518Z,3.48
2022-12-25T06:14:11.754Z,3.48
2022-12-25T06:16:39.480Z,3.55
2022-12-25T06:19:06.854Z,3.53
2022-12-25T06:21:34.295Z,3.54
2022-12-25T06:24:01.839Z,3.55
2022-12-25T06:26:29.398Z,3.57
2022-12-25T06:28:56.710Z,3.49
2022-12-25T06:31:24.268Z,3.50
2022-12-25T06:33:51.758Z,3.54
2022-12-25T06:36:23.024Z,3.56
2022-12-25T06:38:50.584Z,3.57
2022-12-25T06:41:23.383Z,3.61
2022-12-25T06:43:52.282Z,3.61
2022-12-25T06:46:20.797Z,3.60
2022-12-25T06:48:49.932Z,3.58
2022-12-25T06:51:19.309Z,3.62
2022-12-25T06:53:47.872Z,3.62
2022-12-25T06:56:17.480Z,3.61
2022-12-25T06:58:46.455Z,3.65
2022-12-25T07:01:47.267Z,3.64
2022-12-25T07:04:16.342Z,3.66
2022-12-25T07:06:43.576Z,3.66
2022-12-25T07:09:10.834Z,3.67
2022-12-25T07:11:38.176Z,3.60
2022-12-25T07:14:05.344Z,3.63
2022-12-25T07:16:32.824Z,3.60
2022-12-25T07:19:01.383Z,3.60
2022-12-25T07:21:28.716Z,3.57
2022-12-25T07:23:55.852Z,3.54
2022-12-25T07:26:23.098Z,3.49
2022-12-25T07:28:50.381Z,3.47
2022-12-25T07:31:18.670Z,3.47
2022-12-25T07:33:45.995Z,3.48
2022-12-25T07:36:14.256Z,3.42
2022-12-25T07:38:42.760Z,3.43
2022-12-25T07:41:11.483Z,3.43
2022-12-25T07:43:38.760Z,3.43
2022-12-25T07:46:06.442Z,3.43
2022-12-25T07:48:33.929Z,3.44
2022-12-25T07:51:03.500Z,3.43
2022-12-25T07:53:30.997Z,3.38
2022-12-25T07:55:59.695Z,3.41
2022-12-25T07:58:27.292Z,3.37
2022-12-25T08:00:54.986Z,3.38
2022-12-25T08:03:22.529Z,3.35
2022-12-25T08:05:50.173Z,3.32
2022-12-25T08:08:17.332Z,3.29
2022-12-25T08:10:46.450Z,3.34
2022-12-25T08:13:14.768Z,3.33
2022-12-25T08:15:42.490Z,3.33
2022-12-25T08:18:09.718Z,3.30
2022-12-25T08:20:37.144Z,3.35
2022-12-25T08:23:05.114Z,3.33
2022-12-25T08:25:32.846Z,3.32
2022-12-25T08:28:01.524Z,3.43
2022-12-25T08:30:28.883Z,3.34
2022-12-25T08:32:56.101Z,3.35
2022-12-25T08:35:23.573Z,3.33
2022-12-25T08:37:50.726Z,3.25
2022-12-25T08:40:18.371Z,3.23
2022-12-25T08:42:45.515Z,3.21
2022-12-25T08:45:12.814Z,3.22
2022-12-25T08:47:39.895Z,3.27
2022-12-25T08:50:08.137Z,3.29
2022-12-25T08:52:35.405Z,3.29
2022-12-25T08:55:02.804Z,3.29
2022-12-25T08:57:29.951Z,3.28
2022-12-25T08:59:57.272Z,3.23
2022-12-25T09:02:24.676Z,3.25
2022-12-25T09:04:52.034Z,3.29
2022-12-25T09:07:19.182Z,3.31
2022-12-25T09:09:46.567Z,3.34
2022-12-25T09:12:13.818Z,3.35
2022-12-25T09:14:41.148Z,3.34
2022-12-25T09:17:08.230Z,3.31
2022-12-25T09:19:35.620Z,3.36
2022-12-25T09:22:03.069Z,3.33
2022-12-25T09:24:30.409Z,3.35
2022-12-25T09:26:57.590Z,3.41
2022-12-25T09:29:25.005Z,3.44
2022-12-25T09:31:52.145Z,3.46
2022-12-25T09:34:19.450Z,3.51
2022-12-25T09:36:46.717Z,3.50
2022-12-25T09:39:14.075Z,3.51
2022-12-25T09:41:51.178Z,3.54
2022-12-25T09:44:21.981Z,3.54
2022-12-25T09:47:11.986Z,3.58
2022-12-25T09:49:45.118Z,3.60
2022-12-25T09:52:32.493Z,3.70
2022-12-25T09:55:06.749Z,3.76
2022-12-25T09:57:34.041Z,3.80
2022-12-25T10:00:01.347Z,3.83
2022-12-25T10:02:51.469Z,3.84
2022-12-25T10:05:56.118Z,3.85
2022-12-25T10:08:29.200Z,3.85
2022-12-25T10:11:05.552Z,3.95
2022-12-25T10:13:45.388Z,3.98
2022-12-25T10:16:33.814Z,4.03
2022-12-25T10:19:29.688Z,4.08
2022-12-25T10:22:03.117Z,4.08
2022-12-25T10:24:41.139Z,4.13
2022-12-25T10:27:18.493Z,4.19
2022-12-25T10:29:48.865Z,4.26
2022-12-25T10:32:16.212Z,4.30
2022-12-25T10:34:43.747Z,4.32
2022-12-25T10:37:12.113Z,4.37
2022-12-25T10:39:45.827Z,4.34
2022-12-25T10:42:31.428Z,4.38
2022-12-25T10:45:04.512Z,4.43
2022-12-25T10:47:34.557Z,4.46
2022-12-25T10:50:09.235Z,4.51
2022-12-25T10:52:57.032Z,4.46
2022-12-25T10:55:28.792Z,4.49
2022-12-25T10:57:58.040Z,4.56
2022-12-25T11:00:28.493Z,4.62
2022-12-25T11:02:56.377Z,4.65
2022-12-25T11:05:29.285Z,4.72
2022-12-25T11:07:58.671Z,4.71
2022-12-25T11:10:44.048Z,4.76
2022-12-25T11:13:20.941Z,4.75
2022-12-25T11:15:49.505Z,4.67
2022-12-25T11:18:24.097Z,4.72
2022-12-25T11:20:52.968Z,4.73
2022-12-25T11:23:22.271Z,4.70
2022-12-25T11:26:01.913Z,4.73
2022-12-25T11:28:31.463Z,4.72
2022-12-25T11:31:03.584Z,4.73
2022-12-25T11:33:35.840Z,4.77
2022-12-25T11:36:13.120Z,4.67
2022-12-25T11:38:40.419Z,4.74
2022-12-25T11:41:10.102Z,4.70
2022-12-25T11:43:46.203Z,4.73
2022-12-25T11:46:24.782Z,4.66
2022-12-25T11:48:56.385Z,4.66
2022-12-25T11:51:30.984Z,4.66
2022-12-25T11:54:01.569Z,4.68
2022-12-25T11:56:30.723Z,4.67
2022-12-25T11:59:06.496Z,4.64
2022-12-25T12:01:37.649Z,4.64
2022-12-25T12:04:13.101Z,4.61
2022-12-25T12:06:48.327Z,4.53
2022-12-25T12:09:25.039Z,4.59
2022-12-25T12:12:04.184Z,4.54
2022-12-25T12:14:43.157Z,4.58
2022-12-25T12:17:12.596Z,4.56
2022-12-25T12:19:39.949Z,4.56
2022-12-25T12:22:07.116Z,4.54
2022-12-25T12:24:44.367Z,4.62
2022-12-25T12:27:28.396Z,4.64
2022-12-25T12:29:57.739Z,4.65
2022-12-25T12:32:36.021Z,4.72
2022-12-25T12:35:14.360Z,4.73
2022-12-25T12:37:42.348Z,4.63
2022-12-25T12:40:24.084Z,4.63
2022-12-25T12:42:52.429Z,4.68
2022-12-25T12:45:25.449Z,4.64
2022-12-25T12:47:53.693Z,4.64
2022-12-25T12:50:30.928Z,4.68
2022-12-25T12:52:58.568Z,4.72
2022-12-25T12:55:31.394Z,4.65
2022-12-25T12:58:00.623Z,4.72
2022-12-25T13:00:37.021Z,4.67
2022-12-25T13:03:36.907Z,4.69
2022-12-25T13:06:11.597Z,4.62
2022-12-25T13:09:20.313Z,4.61
2022-12-25T13:11:48.138Z,4.69
2022-12-25T13:14:19.258Z,4.69
2022-12-25T13:16:48.154Z,4.61
2022-12-25T13:19:18.489Z,4.61
2022-12-25T13:22:27.517Z,4.54
2022-12-25T13:25:00.504Z,4.49
2022-12-25T13:27:30.682Z,4.53
2022-12-25T13:29:58.630Z,4.56
2022-12-25T13:32:31.014Z,4.56
2022-12-25T13:34:58.769Z,4.56
2022-12-25T13:37:28.783Z,4.58
2022-12-25T13:39:57.515Z,4.59
2022-12-25T13:42:31.041Z,4.61
2022-12-25T13:45:06.460Z,4.59
2022-12-25T13:47:39.434Z,4.62
2022-12-25T13:50:26.613Z,4.63
2022-12-25T13:52:56.227Z,4.61
2022-12-25T13:55:26.389Z,4.57
2022-12-25T13:58:01.920Z,4.51
2022-12-25T14:00:36.779Z,4.50
2022-12-25T14:03:05.532Z,4.50
2022-12-25T14:05:42.287Z,4.54
2022-12-25T14:08:15.808Z,4.50
2022-12-25T14:10:45.698Z,4.56
2022-12-25T14:13:13.939Z,4.56
2022-12-25T14:15:41.527Z,4.57
2022-12-25T14:18:15.210Z,4.61
2022-12-25T14:20:55.001Z,4.59
2022-12-25T14:23:22.539Z,4.60
2022-12-25T14:25:49.896Z,4.63
2022-12-25T14:28:25.494Z,4.58
2022-12-25T14:30:54.030Z,4.53
2022-12-25T14:33:23.671Z,4.57
2022-12-25T14:35:51.469Z,4.53
2022-12-25T14:38:29.180Z,4.51
2022-12-25T14:41:00.734Z,4.51
2022-12-25T14:43:29.143Z,4.47
2022-12-25T14:46:01.111Z,4.49
2022-12-25T14:48:30.766Z,4.53
2022-12-25T14:51:04.808Z,4.55
2022-12-25T14:53:40.667Z,4.48
2022-12-25T14:56:10.213Z,4.59
2022-12-25T14:58:42.945Z,4.57
2022-12-25T15:01:21.676Z,4.46
2022-12-25T15:03:49.489Z,4.36
2022-12-25T15:06:22.643Z,4.35
2022-12-25T15:09:15.463Z,4.30
2022-12-25T15:11:42.775Z,4.31
2022-12-25T15:14:10.154Z,4.30
2022-12-25T15:16:42.101Z,4.30
2022-12-25T15:19:12.068Z,4.19
2022-12-25T15:21:39.262Z,4.23
2022-12-25T15:24:12.180Z,4.17
2022-12-25T15:26:39.783Z,4.15
2022-12-25T15:29:07.578Z,4.22
2022-12-25T15:31:37.240Z,4.26
2022-12-25T15:34:07.072Z,4.23
2022-12-25T15:36:34.327Z,4.24
2022-12-25T15:39:01.712Z,4.20
2022-12-25T15:41:50.235Z,4.13
2022-12-25T15:44:18.232Z,4.14
2022-12-25T15:46:46.178Z,4.06
2022-12-25T15:49:15.038Z,4.01
2022-12-25T15:51:43.043Z,4.01
2022-12-25T15:54:11.021Z,4.05
2022-12-25T15:56:45.011Z,4.05
2022-12-25T15:59:13.405Z,4.09
2022-12-25T16:01:47.715Z,4.09
2022-12-25T16:04:15.319Z,4.15
2022-12-25T16:06:42.561Z,4.17
2022-12-25T16:09:14.555Z,4.17
2022-12-25T16:11:42.180Z,4.16
2022-12-25T16:14:10.303Z,4.12
2022-12-25T16:16:37.621Z,4.14
2022-12-25T16:19:05.606Z,4.16
2022-12-25T16:21:41.783Z,4.15
2022-12-25T16:24:09.555Z,4.09
2022-12-25T16:26:36.777Z,4.06
2022-12-25T16:29:07.304Z,4.07
2022-12-25T16:31:36.187Z,4.07
2022-12-25T16:34:04.375Z,4.04
2022-12-25T16:36:31.614Z,4.10
2022-12-25T16:38:59.097Z,4.02
2022-12-25T16:41:26.289Z,4.12
2022-12-25T16:43:53.719Z,4.12
2022-12-25T16:46:22.014Z,4.11
2022-12-25T16:48:49.743Z,4.12
2022-12-25T16:51:19.875Z,4.19
2022-12-25T16:53:47.686Z,4.13
2022-12-25T16:56:17.921Z,4.23
2022-12-25T16:58:46.812Z,4.21
2022-12-25T17:01:17.077Z,4.26
2022-12-25T17:03:44.761Z,4.25
2022-12-25T17:06:23.779Z,4.26
2022-12-25T17:08:52.231Z,4.24
2022-12-25T17:11:24.343Z,4.27
2022-12-25T17:13:51.833Z,4.21
2022-12-25T17:16:25.007Z,4.34
2022-12-25T17:19:01.424Z,4.31
2022-12-25T17:21:29.213Z,4.30
2022-12-25T17:24:02.331Z,4.36
2022-12-25T17:26:32.246Z,4.41
2022-12-25T17:29:00.008Z,4.47
2022-12-25T17:31:27.973Z,4.51
2022-12-25T17:33:55.671Z,4.52
2022-12-25T17:36:23.402Z,4.46
2022-12-25T17:38:50.769Z,4.40
2022-12-25T17:41:19.421Z,4.41
2022-12-25T17:43:47.799Z,4.32
2022-12-25T17:46:20.929Z,4.31
2022-12-25T17:48:50.180Z,4.25
2022-12-25T17:51:21.276Z,4.23
2022-12-25T17:53:51.466Z,4.22
2022-12-25T17:56:19.770Z,4.10
2022-12-25T17:58:55.938Z,4.13
2022-12-25T18:01:25.010Z,4.02
2022-12-25T18:03:52.787Z,4.08
2022-12-25T18:06:22.250Z,4.03
2022-12-25T18:08:50.106Z,4.09
2022-12-25T18:11:24.629Z,4.09
2022-12-25T18:13:53.533Z,4.11
2022-12-25T18:16:23.638Z,4.01
2022-12-25T18:18:52.623Z,4.09
2022-12-25T18:21:22.345Z,4.14
2022-12-25T18:23:50.401Z,4.15
2022-12-25T18:26:18.670Z,4.15
2022-12-25T18:28:46.305Z,4.16
2022-12-25T18:31:15.699Z,4.16
2022-12-25T18:33:44.652Z,4.02
2022-12-25T18:36:20.041Z,4.05
2022-12-25T18:38:49.095Z,4.10
2022-12-25T18:41:16.588Z,4.04
2022-12-25T18:43:53.919Z,3.99
2022-12-25T18:46:27.347Z,4.06
2022-12-25T18:48:57.031Z,4.04
2022-12-25T18:51:24.871Z,4.01
2022-12-25T18:53:52.367Z,4.06
2022-12-25T18:56:20.048Z,3.96
2022-12-25T18:58:48.067Z,3.98
2022-12-25T19:01:18.710Z,3.97
2022-12-25T19:03:49.248Z,3.97
2022-12-25T19:06:23.343Z,4.03
2022-12-25T19:08:50.916Z,4.02
2022-12-25T19:11:18.725Z,4.07
2022-12-25T19:13:46.610Z,4.05
2022-12-25T19:16:14.101Z,4.05
2022-12-25T19:18:42.889Z,4.11
2022-12-25T19:21:10.480Z,4.09
2022-12-25T19:23:38.303Z,4.12
2022-12-25T19:26:07.453Z,4.10
2022-12-25T19:28:35.466Z,4.06
2022-12-25T19:31:04.879Z,4.05
2022-12-25T19:33:32.642Z,4.03
2022-12-25T19:36:01.160Z,4.05
2022-12-25T19:38:29.528Z,3.98
2022-12-25T19:41:02.502Z,3.94
2022-12-25T19:43:32.200Z,3.94
2022-12-25T19:46:00.190Z,3.90
2022-12-25T19:48:30.001Z,3.90
2022-12-25T19:50:57.912Z,3.95
2022-12-25T19:53:25.951Z,3.98
2022-12-25T19:55:53.719Z,3.97
2022-12-25T19:58:22.316Z,3.99
2022-12-25T20:01:02.963Z,3.98
2022-12-25T20:03:30.662Z,4.02
2022-12-25T20:05:57.933Z,3.98
2022-12-25T20:08:25.587Z,4.01
2022-12-25T20:10:52.987Z,3.99
2022-12-25T20:13:20.643Z,4.05
2022-12-25T20:15:48.279Z,3.99
2022-12-25T20:18:16.945Z,4.01
2022-12-25T20:20:44.793Z,3.99
2022-12-25T20:23:12.194Z,4.02
2022-12-25T20:25:41.051Z,4.12
2022-12-25T20:28:09.371Z,4.07
2022-12-25T20:30:40.581Z,4.00
2022-12-25T20:33:09.123Z,4.05
2022-12-25T20:35:36.538Z,3.96
2022-12-25T20:38:03.864Z,3.99
2022-12-25T20:40:34.622Z,3.97
2022-12-25T20:43:09.172Z,3.90
2022-12-25T20:45:42.523Z,3.95
2022-12-25T20:48:09.799Z,3.98
2022-12-25T20:50:37.166Z,3.87
2022-12-25T20:53:04.871Z,3.90
2022-12-25T20:55:32.132Z,3.86
2022-12-25T20:57:59.647Z,3.89
2022-12-25T21:00:26.827Z,3.95
2022-12-25T21:02:54.318Z,3.88
2022-12-25T21:05:23.765Z,3.89
2022-12-25T21:07:51.320Z,3.87
2022-12-25T21:10:18.537Z,3.80
2022-12-25T21:12:46.127Z,3.77
2022-12-25T21:15:15.732Z,3.67
2022-12-25T21:17:43.559Z,3.70
2022-12-25T21:20:11.193Z,3.69
2022-12-25T21:22:38.637Z,3.74
2022-12-25T21:25:05.899Z,3.68
2022-12-25T21:27:33.308Z,3.62
2022-12-25T21:30:15.077Z,3.52
2022-12-25T21:33:02.263Z,3.57
2022-12-25T21:35:30.802Z,3.58
2022-12-25T21:37:58.134Z,3.62
2022-12-25T21:40:25.686Z,3.55
2022-12-25T21:42:53.142Z,3.62
2022-12-25T21:45:20.561Z,3.61
2022-12-25T21:48:01.930Z,3.61
2022-12-25T21:50:49.296Z,3.54
2022-12-25T21:53:18.318Z,3.58
2022-12-25T21:56:00.691Z,3.63
2022-12-25T21:58:28.554Z,3.62
2022-12-25T22:00:55.808Z,3.61
2022-12-25T22:03:23.950Z,3.58
2022-12-25T22:06:09.839Z,3.63
2022-12-25T22:08:37.314Z,3.63
2022-12-25T22:11:04.654Z,3.63
2022-12-25T22:13:50.463Z,3.58
2022-12-25T22:16:36.263Z,3.63
2022-12-25T22:19:22.232Z,3.62
2022-12-25T22:21:49.379Z,3.57
2022-12-25T22:24:18.398Z,3.50
2022-12-25T22:26:46.128Z,3.55
2022-12-25T22:29:13.439Z,3.55
2022-12-25T22:31:46.488Z,3.61
2022-12-25T22:34:15.990Z,3.61
2022-12-25T22:36:43.405Z,3.61
2022-12-25T22:39:10.893Z,3.60
2022-12-25T22:41:38.061Z,3.62
2022-12-25T22:44:17.127Z,3.60
2022-12-25T22:46:45.122Z,3.66
2022-12-25T22:49:12.513Z,3.59
2022-12-25T22:51:39.566Z,3.68
2022-12-25T22:54:06.910Z,3.68
2022-12-25T22:56:34.103Z,3.71
2022-12-25T22:59:01.565Z,3.60
2022-12-25T23:01:28.871Z,3.68
2022-12-25T23:03:56.295Z,3.65
2022-12-25T23:06:23.540Z,3.65
2022-12-25T23:08:50.890Z,3.67
2022-12-25T23:11:18.227Z,3.64
2022-12-25T23:14:04.296Z,3.72
2022-12-25T23:16:31.516Z,3.75
2022-12-25T23:19:17.435Z,3.69
2022-12-25T23:22:02.924Z,3.63
2022-12-25T23:24:49.012Z,3.71
2022-12-25T23:27:18.174Z,3.66
2022-12-25T23:29:46.171Z,3.65
2022-12-25T23:32:22.449Z,3.60
2022-12-25T23:34:49.871Z,3.67
2022-12-25T23:37:17.413Z,3.66
2022-12-25T23:39:44.882Z,3.61
2022-12-25T23:42:11.962Z,3.57
2022-12-25T23:44:39.677Z,3.54
2022-12-25T23:47:06.960Z,3.54
2022-12-25T23:49:34.493Z,3.49
2022-12-25T23:52:01.664Z,3.55
2022-12-25T23:54:30.696Z,3.63
2022-12-25T23:56:59.234Z,3.54
2022-12-25T23:59:28.468Z,3.57
